createdAt,value
2022-08-20T00:04:05.944Z,99863.59
2022-08-20T00:05:18.347Z,99863.59
2022-08-20T00:06:25.519Z,99864.63
2022-08-20T00:07:30.498Z,99864.63
2022-08-20T00:08:34.658Z,99869.03
2022-08-20T00:09:40.290Z,99869.03
2022-08-20T00:10:55.586Z,99877.82
2022-08-20T00:12:08.576Z,99877.82
2022-08-20T00:13:26.602Z,99881.78
2022-08-20T00:17:35.355Z,99879.25
2022-08-20T00:20:10.633Z,99881.14
2022-08-20T00:21:19.029Z,99883.03
2022-08-20T00:22:14.702Z,99881.78
2022-08-20T00:37:17.479Z,99883.64
2022-08-20T00:38:28.616Z,99883.64
2022-08-20T00:39:40.347Z,99879.90
2022-08-20T00:41:00.358Z,99881.78
2022-08-20T00:42:05.178Z,99881.78
2022-08-20T00:43:25.522Z,99883.25
2022-08-20T00:44:31.507Z,99890.15
2022-08-20T00:45:36.597Z,99890.15
2022-08-20T00:46:45.181Z,99890.34
2022-08-20T00:47:51.513Z,99891.20
2022-08-20T00:48:57.352Z,99889.52
2022-08-20T00:50:01.547Z,99892.86
2022-08-20T00:51:11.140Z,99885.55
2022-08-20T00:52:18.147Z,99891.81
2022-08-20T00:53:31.566Z,99893.50
2022-08-20T00:54:35.855Z,99888.27
2022-08-20T00:55:41.985Z,99880.94
2022-08-20T00:56:48.635Z,99887.20
2022-08-20T00:58:01.443Z,99887.20
2022-08-20T00:59:03.418Z,99890.15
2022-08-20T01:00:12.180Z,99884.08
2022-08-20T01:01:20.690Z,99884.08
2022-08-20T01:02:27.358Z,99888.27
2022-08-20T01:03:31.763Z,99887.41
2022-08-20T01:04:37.982Z,99878.02
2022-08-20T01:05:44.992Z,99878.02
2022-08-20T01:06:49.640Z,99877.60
2022-08-20T01:07:55.577Z,99874.25
2022-08-20T01:09:01.260Z,99878.41
2022-08-20T01:10:20.490Z,99883.84
2022-08-20T01:11:25.869Z,99881.13
2022-08-20T01:12:30.878Z,99872.97
2022-08-20T01:13:37.681Z,99883.42
2022-08-20T01:14:45.458Z,99883.42
2022-08-20T01:15:52.036Z,99888.66
2022-08-20T01:16:59.092Z,99887.20
2022-08-20T01:18:03.908Z,99889.72
2022-08-20T01:19:29.222Z,99879.68
2022-08-20T01:20:27.433Z,99883.03
2022-08-20T01:21:31.840Z,99876.73
2022-08-20T01:22:42.784Z,99878.22
2022-08-20T01:24:13.851Z,99875.50
2022-08-20T01:25:32.803Z,99875.50
2022-08-20T01:26:43.268Z,99879.66
2022-08-20T01:34:46.557Z,99875.00
2022-08-20T01:35:51.597Z,99877.11
2022-08-20T01:36:58.278Z,99875.83
2022-08-20T01:38:02.299Z,99879.18
2022-08-20T01:39:09.189Z,99874.36
2022-08-20T01:40:17.709Z,99874.36
2022-08-20T01:41:30.905Z,99871.22
2022-08-20T01:42:52.727Z,99865.98
2022-08-20T01:43:49.234Z,99876.02
2022-08-20T01:44:55.035Z,99862.02
2022-08-20T01:45:59.178Z,99862.02
2022-08-20T01:47:15.905Z,99860.33
2022-08-20T01:48:20.324Z,99860.33
2022-08-20T01:49:32.926Z,99862.20
2022-08-20T01:50:41.438Z,99862.20
2022-08-20T01:51:47.300Z,99854.06
2022-08-20T01:53:10.807Z,99855.73
2022-08-20T01:54:14.896Z,99859.67
2022-08-20T01:55:19.094Z,99855.08
2022-08-20T01:56:29.947Z,99858.39
2022-08-20T01:57:34.953Z,99858.39
2022-08-20T01:58:43.336Z,99857.34
2022-08-20T01:59:52.580Z,99863.00
2022-08-20T02:01:00.251Z,99870.73
2022-08-20T02:02:05.538Z,99882.88
2022-08-20T02:03:11.200Z,99872.42
2022-08-20T02:04:16.194Z,99872.42
2022-08-20T02:05:20.804Z,99871.36
2022-08-20T02:06:27.230Z,99875.32
2022-08-20T02:07:31.319Z,99869.89
2022-08-20T02:08:35.301Z,99865.70
2022-08-20T02:09:39.835Z,99865.70
2022-08-20T02:10:43.986Z,99869.06
2022-08-20T02:11:48.193Z,99874.91
2022-08-20T02:12:53.100Z,99874.91
2022-08-20T02:13:57.888Z,99868.20
2022-08-20T02:15:02.592Z,99872.61
2022-08-20T02:16:08.587Z,99869.89
2022-08-20T02:17:14.588Z,99864.87
2022-08-20T02:18:18.830Z,99864.87
2022-08-20T02:19:25.825Z,99873.20
2022-08-20T02:20:31.341Z,99876.75
2022-08-20T02:21:40.789Z,99876.75
2022-08-20T02:22:53.768Z,99876.98
2022-08-20T02:24:07.427Z,99879.09
2022-08-20T02:25:09.349Z,99885.17
2022-08-20T02:26:14.157Z,99885.59
2022-08-20T02:27:18.286Z,99882.46
2022-08-20T02:28:22.343Z,99883.70
2022-08-20T02:29:26.487Z,99887.70
2022-08-20T02:30:34.594Z,99887.70
2022-08-20T02:32:23.564Z,99888.77
2022-08-20T02:32:46.636Z,99889.41
2022-08-20T02:34:22.459Z,99884.16
2022-08-20T02:34:56.894Z,99885.86
2022-08-20T02:36:00.869Z,99886.47
2022-08-20T02:37:07.164Z,99880.02
2022-08-20T02:38:11.798Z,99880.02
2022-08-20T02:39:16.330Z,99871.86
2022-08-20T02:40:30.180Z,99867.88
2022-08-20T02:41:29.094Z,99869.56
2022-08-20T02:42:36.765Z,99871.00
2022-08-20T02:43:40.935Z,99872.05
2022-08-20T02:44:48.301Z,99872.05
2022-08-20T02:45:52.340Z,99880.80
2022-08-20T02:46:57.134Z,99880.80
2022-08-20T02:48:01.191Z,99883.74
2022-08-20T02:49:08.418Z,99872.47
2022-08-20T02:50:16.083Z,99872.47
2022-08-20T02:51:20.088Z,99886.46
2022-08-20T02:52:26.217Z,99877.48
2022-08-20T02:53:32.976Z,99877.48
2022-08-20T02:54:37.128Z,99880.84
2022-08-20T02:55:41.283Z,99880.84
2022-08-20T02:56:47.639Z,99884.39
2022-08-20T02:57:54.465Z,99884.39
2022-08-20T02:59:00.027Z,99892.95
2022-08-20T03:00:06.451Z,99894.61
2022-08-20T03:01:13.624Z,99894.61
2022-08-20T03:02:17.849Z,99883.37
2022-08-20T03:03:21.952Z,99883.37
2022-08-20T03:04:26.153Z,99885.86
2022-08-20T03:05:30.339Z,99881.03
2022-08-20T03:06:34.957Z,99879.37
2022-08-20T03:07:44.833Z,99879.18
2022-08-20T03:08:50.923Z,99885.86
2022-08-20T03:09:54.934Z,99882.09
2022-08-20T03:10:59.885Z,99887.52
2022-08-20T03:12:05.218Z,99891.70
2022-08-20T03:13:09.524Z,99892.53
2022-08-20T03:14:13.874Z,99892.53
2022-08-20T03:15:18.040Z,99771.59
2022-08-20T03:16:23.924Z,99901.09
2022-08-20T03:17:27.979Z,99901.09
2022-08-20T03:18:35.334Z,99908.00
2022-08-20T03:19:39.469Z,99908.18
2022-08-20T03:20:46.097Z,99909.02
2022-08-20T03:21:50.629Z,99908.83
2022-08-20T03:22:56.356Z,99908.83
2022-08-20T03:24:01.713Z,99909.89
2022-08-20T03:25:07.134Z,99915.31
2022-08-20T03:26:13.462Z,99909.25
2022-08-20T03:27:17.454Z,99909.25
2022-08-20T03:28:23.253Z,99906.30
2022-08-20T03:29:27.230Z,99906.48
2022-08-20T03:30:33.138Z,99906.48
2022-08-20T03:31:37.678Z,99902.94
2022-08-20T03:32:42.723Z,99902.94
2022-08-20T03:33:52.736Z,99895.02
2022-08-20T03:34:54.333Z,99902.98
2022-08-20T03:35:58.679Z,99896.31
2022-08-20T03:37:03.254Z,99898.42
2022-08-20T03:38:09.623Z,99897.59
2022-08-20T03:39:14.142Z,99908.27
2022-08-20T03:40:22.921Z,99901.39
2022-08-20T03:41:27.434Z,99901.39
2022-08-20T03:42:31.551Z,99896.82
2022-08-20T03:43:36.987Z,99894.70
2022-08-20T03:44:43.256Z,99894.70
2022-08-20T03:45:47.368Z,99894.93
2022-08-20T03:46:56.073Z,99894.93
2022-08-20T03:47:59.882Z,99894.93
2022-08-20T03:49:08.348Z,99880.53
2022-08-20T03:50:22.781Z,99871.97
2022-08-20T03:51:19.924Z,99874.27
2022-08-20T03:52:26.443Z,99878.64
2022-08-20T03:53:32.045Z,99878.64
2022-08-20T03:54:37.647Z,99878.00
2022-08-20T03:55:43.376Z,99878.00
2022-08-20T03:56:50.695Z,99876.75
2022-08-20T03:59:07.563Z,99890.15
2022-08-20T04:00:13.281Z,99889.30
2022-08-20T04:01:44.613Z,99882.42
2022-08-20T04:02:23.778Z,99885.95
2022-08-20T04:03:27.823Z,99885.95
2022-08-20T04:04:31.967Z,99879.28
2022-08-20T04:05:38.468Z,99880.52
2022-08-20T04:06:46.132Z,99879.27
2022-08-20T04:08:05.030Z,99878.01
2022-08-20T04:09:12.343Z,99878.01
2022-08-20T04:10:18.540Z,99882.39
2022-08-20T04:11:22.704Z,99882.39
2022-08-20T04:12:27.237Z,99881.14
2022-08-20T04:13:33.165Z,99874.64
2022-08-20T04:14:38.641Z,99885.95
2022-08-20T04:15:47.176Z,99888.88
2022-08-20T04:16:53.019Z,99880.72
2022-08-20T04:17:57.334Z,99894.73
2022-08-20T04:19:02.802Z,99888.89
2022-08-20T04:20:10.345Z,99890.16
2022-08-20T04:21:15.363Z,99891.41
2022-08-20T04:22:19.739Z,99889.72
2022-08-20T04:23:24.031Z,99885.53
2022-08-20T04:24:32.318Z,99887.42
2022-08-20T04:25:37.471Z,99883.88
2022-08-20T04:26:44.679Z,99883.88
2022-08-20T04:27:49.404Z,99883.45
2022-08-20T04:29:04.558Z,99878.84
2022-08-20T04:30:01.425Z,99878.84
2022-08-20T04:31:05.498Z,99885.09
2022-08-20T04:32:11.273Z,99878.20
2022-08-20T04:33:15.324Z,99878.20
2022-08-20T04:34:22.346Z,99882.62
2022-08-20T04:35:28.633Z,99885.54
2022-08-20T04:36:33.020Z,99876.31
2022-08-20T04:37:37.184Z,99876.31
2022-08-20T04:38:49.979Z,99880.89
2022-08-20T04:39:49.570Z,99879.59
2022-08-20T04:41:06.999Z,99877.47
2022-08-20T04:42:01.548Z,99880.38
2022-08-20T04:43:07.735Z,99880.38
2022-08-20T04:44:12.314Z,99884.31
2022-08-20T04:45:16.272Z,99878.23
2022-08-20T04:46:24.201Z,99882.17
2022-08-20T04:47:34.627Z,99881.09
2022-08-20T04:48:38.303Z,99881.09
2022-08-20T04:49:43.959Z,99880.02
2022-08-20T04:50:50.201Z,99880.02
2022-08-20T04:51:54.942Z,99872.23
2022-08-20T04:52:59.005Z,99872.23
2022-08-20T04:54:03.330Z,99871.98
2022-08-20T04:55:08.041Z,99876.30
2022-08-20T04:56:12.466Z,99881.28
2022-08-20T04:57:19.087Z,99879.36
2022-08-20T04:58:26.151Z,99879.36
2022-08-20T04:59:33.726Z,99881.54
2022-08-20T05:00:38.151Z,99881.54
2022-08-20T05:02:15.463Z,99873.63
2022-08-20T05:02:54.448Z,99879.18
2022-08-20T05:03:59.348Z,99878.72
2022-08-20T05:05:03.378Z,99871.53
2022-08-20T05:06:10.369Z,99871.53
2022-08-20T05:07:16.374Z,99880.48
2022-08-20T05:08:21.995Z,99880.48
2022-08-20T05:09:26.201Z,99871.17
2022-08-20T05:10:31.242Z,99877.09
2022-08-20T05:11:36.904Z,99877.09
2022-08-20T05:12:42.934Z,99868.80
2022-08-20T05:13:48.947Z,99868.97
2022-08-20T05:14:56.773Z,99868.97
2022-08-20T05:16:02.596Z,99867.98
2022-08-20T05:17:06.786Z,99867.98
2022-08-20T05:18:10.832Z,99865.52
2022-08-20T05:19:16.501Z,99871.37
2022-08-20T05:20:21.216Z,99877.55
2022-08-20T05:21:29.670Z,99871.76
2022-08-20T05:22:35.886Z,99871.76
2022-08-20T05:23:48.581Z,99869.75
2022-08-20T05:24:52.680Z,99877.14
2022-08-20T05:25:56.913Z,99870.94
2022-08-20T05:27:03.380Z,99870.94
2022-08-20T05:28:10.469Z,99867.15
2022-08-20T05:29:22.418Z,99866.67
2022-08-20T05:30:28.757Z,99866.67
2022-08-20T05:31:35.448Z,99866.44
2022-08-20T05:32:44.495Z,99861.09
2022-08-20T05:33:45.681Z,99860.73
2022-08-20T05:34:51.287Z,99864.52
2022-08-20T05:36:46.882Z,99863.93
2022-08-20T05:37:06.271Z,99863.93
2022-08-20T05:38:15.396Z,99854.29
2022-08-20T05:39:22.129Z,99858.45
2022-08-20T05:40:28.539Z,99858.45
2022-08-20T05:41:32.564Z,99854.52
2022-08-20T05:43:46.535Z,99860.25
2022-08-20T05:44:11.800Z,99865.96
2022-08-20T05:45:16.859Z,99865.96
2022-08-20T05:46:21.671Z,99865.49
2022-08-20T05:47:27.529Z,99865.49
2022-08-20T05:48:31.513Z,99865.49
2022-08-20T05:49:35.647Z,99862.98
2022-08-20T05:50:41.908Z,99864.98
2022-08-20T05:51:46.109Z,99864.16
2022-08-20T05:52:51.478Z,99864.16
2022-08-20T05:53:59.195Z,99873.36
2022-08-20T05:55:01.289Z,99863.37
2022-08-20T05:56:05.726Z,99866.10
2022-08-20T05:57:19.372Z,99870.13
2022-08-20T05:58:26.002Z,99870.13
2022-08-20T05:59:29.986Z,99893.69
2022-08-20T06:00:35.846Z,99893.69
2022-08-20T06:01:40.703Z,99878.02
2022-08-20T06:02:44.872Z,99866.12
2022-08-20T06:03:49.181Z,99866.12
2022-08-20T06:04:56.118Z,99863.72
2022-08-20T06:05:59.739Z,99862.16
2022-08-20T06:07:06.442Z,99862.16
2022-08-20T06:08:12.532Z,99861.08
2022-08-20T06:09:31.172Z,99854.52
2022-08-20T06:10:26.214Z,99854.52
2022-08-20T06:11:37.409Z,99856.80
2022-08-20T06:14:12.486Z,99857.00
2022-08-20T06:15:16.513Z,99861.05
2022-08-20T06:16:22.232Z,99861.05
2022-08-20T06:17:34.849Z,99868.03
2022-08-20T06:18:42.917Z,99858.38
2022-08-20T06:19:47.393Z,99858.38
2022-08-20T06:20:53.329Z,99868.40
2022-08-20T06:22:17.987Z,99870.66
2022-08-20T06:23:06.449Z,99871.90
2022-08-20T06:24:12.138Z,99871.90
2022-08-20T06:25:18.241Z,99871.90
2022-08-20T06:26:30.856Z,99872.38
2022-08-20T06:27:46.777Z,99872.38
2022-08-20T06:28:50.713Z,99874.49
2022-08-20T06:29:56.541Z,99875.69
2022-08-20T06:31:03.041Z,99872.18
2022-08-20T06:32:07.295Z,99872.18
2022-08-20T06:33:12.794Z,99869.55
2022-08-20T06:34:18.338Z,99871.86
2022-08-20T06:35:24.179Z,99871.86
2022-08-20T06:36:49.430Z,99871.60
2022-08-20T06:37:42.348Z,99861.63
2022-08-20T06:38:49.437Z,99878.27
2022-08-20T06:39:56.156Z,99870.48
2022-08-20T06:41:01.550Z,99870.48
2022-08-20T06:42:05.732Z,99870.14
2022-08-20T06:43:11.798Z,99867.00
2022-08-20T06:44:19.601Z,99870.41
2022-08-20T06:45:28.116Z,99865.57
2022-08-20T06:46:32.437Z,99865.57
2022-08-20T06:47:39.419Z,99863.41
2022-08-20T06:48:43.506Z,99864.59
2022-08-20T06:49:49.595Z,99864.59
2022-08-20T06:50:54.148Z,99870.92
2022-08-20T06:51:59.840Z,99873.43
2022-08-20T06:53:06.456Z,99870.77
2022-08-20T06:54:10.794Z,99870.69
2022-08-20T06:55:17.297Z,99870.69
2022-08-20T06:56:22.337Z,99865.00
2022-08-20T06:57:26.383Z,99862.73
2022-08-20T06:58:38.914Z,99858.33
2022-08-20T06:59:39.274Z,99857.82
2022-08-20T07:00:46.481Z,99854.09
2022-08-20T07:01:50.533Z,99860.80
2022-08-20T07:02:54.846Z,99857.63
2022-08-20T07:03:58.910Z,99855.64
2022-08-20T07:05:05.843Z,99870.42
2022-08-20T07:06:10.656Z,99869.89
2022-08-20T07:07:20.858Z,99869.89
2022-08-20T07:08:26.343Z,99858.97
2022-08-20T07:09:31.812Z,99876.59
2022-08-20T07:10:37.331Z,99865.02
2022-08-20T07:11:41.636Z,99869.48
2022-08-20T07:12:46.083Z,99872.00
2022-08-20T07:13:51.348Z,99872.00
2022-08-20T07:14:55.538Z,99870.14
2022-08-20T07:15:59.612Z,99870.14
2022-08-20T07:17:05.015Z,99868.42
2022-08-20T07:18:12.827Z,99869.77
2022-08-20T07:19:17.073Z,99866.80
2022-08-20T07:20:25.330Z,99861.13
2022-08-20T07:21:29.336Z,99861.13
2022-08-20T07:22:35.049Z,99868.15
2022-08-20T07:23:41.029Z,99868.15
2022-08-20T07:24:48.998Z,99871.40
2022-08-20T07:25:50.721Z,99865.72
2022-08-20T07:26:56.924Z,99865.72
2022-08-20T07:28:05.334Z,99870.48
2022-08-20T07:29:09.399Z,99867.66
2022-08-20T07:30:16.594Z,99867.66
2022-08-20T07:31:22.265Z,99870.55
2022-08-20T07:32:28.956Z,99876.43
2022-08-20T07:33:33.865Z,99876.43
2022-08-20T07:34:38.306Z,99866.05
2022-08-20T07:35:47.182Z,99891.01
2022-08-20T07:36:51.313Z,99869.87
2022-08-20T07:37:55.380Z,99873.32
2022-08-20T07:39:00.862Z,99871.91
2022-08-20T07:40:10.810Z,99869.55
2022-08-20T07:42:44.445Z,99862.45
2022-08-20T07:43:14.072Z,99869.55
2022-08-20T07:44:04.779Z,99868.94
2022-08-20T07:45:02.742Z,99868.94
2022-08-20T07:46:10.867Z,99864.47
2022-08-20T07:47:16.368Z,99864.47
2022-08-20T07:48:31.127Z,99856.75
2022-08-20T07:49:28.516Z,99860.66
2022-08-20T07:50:33.646Z,99865.71
2022-08-20T07:51:37.613Z,99866.61
2022-08-20T07:52:41.654Z,99866.61
2022-08-20T07:53:47.771Z,99859.66
2022-08-20T07:54:53.353Z,99859.66
2022-08-20T07:55:59.049Z,99861.06
2022-08-20T07:57:03.896Z,99861.06
2022-08-20T07:58:10.850Z,99858.19
2022-08-20T07:59:14.826Z,99858.19
2022-08-20T08:00:23.191Z,99863.99
2022-08-20T08:01:30.547Z,99856.98
2022-08-20T08:02:36.842Z,99856.98
2022-08-20T08:03:50.142Z,99857.71
2022-08-20T08:04:48.056Z,99803.73
2022-08-20T08:05:52.181Z,99803.73
2022-08-20T08:06:56.805Z,99856.95
2022-08-20T08:08:02.835Z,99865.31
2022-08-20T08:09:10.240Z,99860.39
2022-08-20T08:10:18.822Z,99860.39
2022-08-20T08:11:24.174Z,99856.48
2022-08-20T08:12:32.775Z,99856.48
2022-08-20T08:13:39.793Z,99850.98
2022-08-20T08:14:46.342Z,99857.12
2022-08-20T08:15:51.469Z,99857.19
2022-08-20T08:16:58.718Z,99860.66
2022-08-20T08:18:11.990Z,99855.25
2022-08-20T08:19:18.159Z,99855.25
2022-08-20T08:20:25.294Z,99853.63
2022-08-20T08:21:30.491Z,99851.74
2022-08-20T08:22:34.707Z,99859.17
2022-08-20T08:23:40.262Z,99853.23
2022-08-20T08:24:56.860Z,99844.40
2022-08-20T08:25:52.425Z,99853.52
2022-08-20T08:26:57.262Z,99853.52
2022-08-20T08:28:01.322Z,99863.66
2022-08-20T08:29:05.434Z,99854.82
2022-08-20T08:30:11.606Z,99854.82
2022-08-20T08:31:16.231Z,99858.15
2022-08-20T08:32:20.256Z,99854.00
2022-08-20T08:33:30.105Z,99858.15
2022-08-20T08:34:36.067Z,99849.27
2022-08-20T08:35:42.161Z,99848.59
2022-08-20T08:36:46.869Z,99848.59
2022-08-20T08:37:58.077Z,99846.42
2022-08-20T08:38:56.840Z,99846.42
2022-08-20T08:40:01.177Z,99844.77
2022-08-20T08:41:19.420Z,99709.08
2022-08-20T08:42:26.407Z,99847.23
2022-08-20T08:43:32.042Z,99850.52
2022-08-20T08:44:39.299Z,99851.09
2022-08-20T08:45:46.276Z,99853.84
2022-08-20T08:46:54.872Z,99849.69
2022-08-20T08:47:59.037Z,99851.61
2022-08-20T08:49:06.691Z,99851.61
2022-08-20T08:50:13.931Z,99843.91
2022-08-20T08:51:24.398Z,99859.40
2022-08-20T08:52:31.811Z,99845.50
2022-08-20T08:53:39.262Z,99848.59
2022-08-20T08:54:46.286Z,99848.59
2022-08-20T08:55:50.404Z,99845.06
2022-08-20T08:56:55.625Z,99845.06
2022-08-20T08:58:06.416Z,99844.77
2022-08-20T08:59:08.777Z,99844.77
2022-08-20T09:00:16.652Z,99849.69
2022-08-20T09:01:55.095Z,99845.48
2022-08-20T09:02:31.206Z,99841.63
2022-08-20T09:03:42.044Z,99841.63
2022-08-20T09:04:46.340Z,99852.22
2022-08-20T09:05:59.442Z,99853.23
2022-08-20T09:07:06.300Z,99853.23
2022-08-20T09:08:16.825Z,99846.47
2022-08-20T09:09:21.837Z,99854.29
2022-08-20T09:10:27.773Z,99853.84
2022-08-20T09:11:35.279Z,99866.42
2022-08-20T09:12:40.862Z,99859.89
2022-08-20T09:13:45.419Z,99852.70
2022-08-20T09:14:52.526Z,99847.28
2022-08-20T09:15:58.009Z,99851.96
2022-08-20T09:17:03.686Z,99829.94
2022-08-20T09:18:11.960Z,99849.86
2022-08-20T09:19:16.028Z,99851.25
2022-08-20T09:20:27.030Z,99853.08
2022-08-20T09:21:27.366Z,99846.80
2022-08-20T09:22:31.676Z,99857.03
2022-08-20T09:23:35.800Z,99857.03
2022-08-20T09:24:40.359Z,99853.22
2022-08-20T09:25:44.473Z,99855.55
2022-08-20T09:26:50.700Z,99855.55
2022-08-20T09:27:54.446Z,99849.20
2022-08-20T09:28:58.849Z,99855.53
2022-08-20T09:30:04.266Z,99848.66
2022-08-20T09:31:08.412Z,99848.66
2022-08-20T09:32:22.206Z,99857.73
2022-08-20T09:33:26.348Z,99853.84
2022-08-20T09:34:30.432Z,99865.09
2022-08-20T09:35:34.544Z,99859.59
2022-08-20T09:36:38.886Z,99859.59
2022-08-20T09:37:43.014Z,99867.01
2022-08-20T09:38:49.220Z,99862.31
2022-08-20T09:39:52.982Z,99859.84
2022-08-20T09:40:57.234Z,99857.94
2022-08-20T09:42:10.143Z,99871.35
2022-08-20T09:43:14.361Z,99871.35
2022-08-20T09:44:18.531Z,99858.45
2022-08-20T09:45:22.655Z,99848.84
2022-08-20T09:46:30.030Z,99848.84
2022-08-20T09:47:34.026Z,99854.62
2022-08-20T09:48:38.003Z,99857.86
2022-08-20T09:49:42.155Z,99859.50
2022-08-20T09:50:50.490Z,99859.50
2022-08-20T09:51:57.560Z,99860.30
2022-08-20T09:53:03.581Z,99855.38
2022-08-20T09:54:07.823Z,99857.63
2022-08-20T09:55:23.807Z,99857.63
2022-08-20T09:56:32.352Z,99851.80
2022-08-20T09:57:36.382Z,99845.75
2022-08-20T09:58:46.563Z,99842.73
2022-08-20T09:59:55.486Z,99843.33
2022-08-20T10:01:03.942Z,99843.64
2022-08-20T10:02:09.671Z,99843.64
2022-08-20T10:03:15.557Z,99848.96
2022-08-20T10:04:19.761Z,99841.53
2022-08-20T10:05:27.094Z,99845.95
2022-08-20T10:06:37.734Z,99845.95
2022-08-20T10:07:39.279Z,99859.48
2022-08-20T10:08:45.290Z,99849.53
2022-08-20T10:09:49.367Z,99845.12
2022-08-20T10:10:53.550Z,99854.80
2022-08-20T10:11:59.048Z,99839.34
2022-08-20T10:13:04.890Z,99839.34
2022-08-20T10:14:10.510Z,99851.50
2022-08-20T10:15:15.916Z,99851.50
2022-08-20T10:16:21.802Z,99853.94
2022-08-20T10:17:25.923Z,99853.94
2022-08-20T10:18:31.619Z,99851.39
2022-08-20T10:19:38.928Z,99854.14
2022-08-20T10:20:45.721Z,99850.33
2022-08-20T10:21:52.921Z,99852.25
2022-08-20T10:22:59.960Z,99852.25
2022-08-20T10:24:05.914Z,99855.00
2022-08-20T10:25:13.526Z,99855.00
2022-08-20T10:26:17.772Z,99856.91
2022-08-20T10:27:22.030Z,99857.71
2022-08-20T10:28:26.095Z,99857.71
2022-08-20T10:29:31.046Z,99858.71
2022-08-20T10:30:36.103Z,99857.23
2022-08-20T10:31:41.839Z,99858.05
2022-08-20T10:32:53.089Z,99850.89
2022-08-20T10:33:58.380Z,99852.53
2022-08-20T10:35:03.883Z,99863.05
2022-08-20T10:36:21.022Z,99864.92
2022-08-20T10:37:27.027Z,99855.30
2022-08-20T10:38:31.074Z,99852.53
2022-08-20T10:39:38.008Z,99852.53
2022-08-20T10:40:52.363Z,99853.68
2022-08-20T10:41:53.684Z,99856.49
2022-08-20T10:42:59.030Z,99850.70
2022-08-20T10:44:09.648Z,99850.70
2022-08-20T10:45:16.334Z,99853.77
2022-08-20T10:47:39.868Z,99851.11
2022-08-20T10:48:46.961Z,99855.98
2022-08-20T10:49:53.335Z,99853.42
2022-08-20T10:50:57.835Z,99863.56
2022-08-20T10:52:01.925Z,99863.56
2022-08-20T10:53:07.724Z,99856.30
2022-08-20T10:54:15.765Z,99862.68
2022-08-20T10:55:21.489Z,99860.14
2022-08-20T10:56:29.575Z,99860.14
2022-08-20T10:57:33.865Z,99860.09
2022-08-20T10:59:04.848Z,99854.29
2022-08-20T11:01:32.775Z,99847.30
2022-08-20T11:01:55.176Z,99861.68
2022-08-20T11:02:33.121Z,99852.45
2022-08-20T11:03:37.265Z,99852.45
2022-08-20T11:04:41.389Z,99848.83
2022-08-20T11:05:45.754Z,99840.39
2022-08-20T11:06:50.133Z,99842.56
2022-08-20T11:07:56.890Z,99842.56
2022-08-20T11:08:59.900Z,99839.34
2022-08-20T11:10:05.469Z,99839.34
2022-08-20T11:11:09.563Z,99842.89
2022-08-20T11:12:16.824Z,99832.91
2022-08-20T11:13:21.398Z,99834.25
2022-08-20T11:14:26.976Z,99834.25
2022-08-20T11:15:31.365Z,99824.35
2022-08-20T11:16:36.341Z,99824.88
2022-08-20T11:17:42.691Z,99824.88
2022-08-20T11:18:47.942Z,99817.27
2022-08-20T11:19:52.140Z,99816.84
2022-08-20T11:20:57.610Z,99816.84
2022-08-20T11:22:02.982Z,99820.78
2022-08-20T11:23:07.003Z,99829.14
2022-08-20T11:24:10.995Z,99829.14
2022-08-20T11:25:16.730Z,99824.31
2022-08-20T11:26:25.936Z,99824.31
2022-08-20T11:27:32.915Z,99828.31
2022-08-20T11:28:36.892Z,99828.31
2022-08-20T11:29:40.937Z,99831.36
2022-08-20T11:30:48.494Z,99831.36
2022-08-20T11:31:53.816Z,99832.23
2022-08-20T11:32:59.413Z,99826.19
2022-08-20T11:34:03.444Z,99824.59
2022-08-20T11:35:38.378Z,99824.59
2022-08-20T11:36:14.714Z,99821.02
2022-08-20T11:37:22.176Z,99818.02
2022-08-20T11:38:26.172Z,99817.77
2022-08-20T11:39:30.277Z,99823.64
2022-08-20T11:40:35.154Z,99823.64
2022-08-20T11:41:39.385Z,99825.00
2022-08-20T11:43:10.978Z,99817.02
2022-08-20T11:44:10.433Z,99818.67
2022-08-20T11:44:59.019Z,99818.67
2022-08-20T11:46:03.143Z,99819.24
2022-08-20T11:47:08.665Z,99818.67
2022-08-20T11:48:12.791Z,99822.24
2022-08-20T11:49:16.861Z,99815.38
2022-08-20T11:50:22.576Z,99809.34
2022-08-20T11:51:26.616Z,99809.34
2022-08-20T11:52:30.728Z,99813.70
2022-08-20T11:53:36.291Z,99816.41
2022-08-20T11:54:41.979Z,99815.88
2022-08-20T11:55:47.084Z,99814.27
2022-08-20T11:56:54.365Z,99818.77
2022-08-20T11:58:00.154Z,99818.02
2022-08-20T11:59:29.251Z,99818.02
2022-08-20T12:00:21.979Z,99820.48
2022-08-20T12:01:29.180Z,99817.26
2022-08-20T12:02:33.273Z,99815.09
2022-08-20T12:03:39.204Z,99810.17
2022-08-20T12:04:43.248Z,99812.65
2022-08-20T12:05:47.881Z,99812.65
2022-08-20T12:06:51.974Z,99812.98
2022-08-20T12:07:56.086Z,99812.98
2022-08-20T12:09:00.707Z,99815.76
2022-08-20T12:10:06.680Z,99812.51
2022-08-20T12:11:10.730Z,99812.51
2022-08-20T12:12:15.833Z,99811.96
2022-08-20T12:13:19.917Z,99816.41
2022-08-20T12:14:25.606Z,99815.87
2022-08-20T12:15:29.677Z,99818.64
2022-08-20T12:16:33.942Z,99818.64
2022-08-20T12:17:38.467Z,99827.75
2022-08-20T12:18:44.248Z,99813.67
2022-08-20T12:19:48.801Z,99813.67
2022-08-20T12:20:53.342Z,99816.98
2022-08-20T12:21:57.322Z,99804.29
2022-08-20T12:23:01.459Z,99804.29
2022-08-20T12:24:05.742Z,99807.28
2022-08-20T12:25:11.371Z,99819.16
2022-08-20T12:26:15.925Z,99814.98
2022-08-20T12:27:25.136Z,99816.30
2022-08-20T12:28:34.565Z,99808.30
2022-08-20T12:29:41.804Z,99811.85
2022-08-20T12:30:49.505Z,99816.23
2022-08-20T12:31:55.037Z,99814.84
2022-08-20T12:33:01.048Z,99814.84
2022-08-20T12:34:55.943Z,99812.05
2022-08-20T12:35:19.667Z,99813.16
2022-08-20T12:36:25.815Z,99819.47
2022-08-20T12:37:32.623Z,99815.04
2022-08-20T12:38:44.342Z,99819.95
2022-08-20T12:39:51.367Z,99812.19
2022-08-20T12:40:55.617Z,99812.19
2022-08-20T12:42:03.467Z,99809.34
2022-08-20T12:43:08.046Z,99809.34
2022-08-20T12:44:13.247Z,99813.48
2022-08-20T12:45:17.834Z,99813.48
2022-08-20T12:46:23.607Z,99802.25
2022-08-20T12:47:32.958Z,99808.33
2022-08-20T12:48:37.131Z,99803.92
2022-08-20T12:49:44.151Z,99803.92
2022-08-20T12:50:49.774Z,99805.03
2022-08-20T12:51:53.764Z,99808.86
2022-08-20T12:53:01.212Z,99808.86
2022-08-20T12:54:12.501Z,99810.98
2022-08-20T12:55:22.204Z,99807.72
2022-08-20T12:56:27.765Z,99814.62
2022-08-20T12:57:37.453Z,99817.70
2022-08-20T12:58:41.445Z,99813.30
2022-08-20T12:59:47.075Z,99813.30
2022-08-20T13:00:51.898Z,99813.59
2022-08-20T13:01:56.423Z,99818.30
2022-08-20T13:03:02.541Z,99818.30
2022-08-20T13:04:06.672Z,99821.34
2022-08-20T13:05:14.506Z,99821.34
2022-08-20T13:06:19.648Z,99809.47
2022-08-20T13:07:25.346Z,99809.47
2022-08-20T13:08:31.224Z,99817.73
2022-08-20T13:09:35.280Z,99817.73
2022-08-20T13:10:43.971Z,99819.38
2022-08-20T13:11:48.014Z,99818.73
2022-08-20T13:12:52.359Z,99818.73
2022-08-20T13:13:56.398Z,99820.64
2022-08-20T13:15:00.436Z,99820.81
2022-08-20T13:16:07.280Z,99814.69
2022-08-20T13:17:11.595Z,99819.61
2022-08-20T13:18:15.681Z,99818.75
2022-08-20T13:19:19.653Z,99818.75
2022-08-20T13:20:26.291Z,99819.81
2022-08-20T13:21:32.083Z,99823.88
2022-08-20T13:22:37.780Z,99665.06
2022-08-20T13:23:41.838Z,99823.23
2022-08-20T13:24:48.668Z,99824.16
2022-08-20T13:25:54.415Z,99822.53
2022-08-20T13:27:10.460Z,99817.55
2022-08-20T13:28:14.463Z,99817.55
2022-08-20T13:29:29.019Z,99823.06
2022-08-20T13:30:36.223Z,99822.18
2022-08-20T13:32:11.135Z,99819.95
2022-08-20T13:33:00.101Z,99819.95